createdAt,value
2024-03-09T00:01:22.376Z,1741.75
2024-03-09T00:03:49.035Z,57.33
2024-03-09T00:06:15.683Z,48.00
2024-03-09T00:08:42.378Z,57.50
2024-03-09T00:11:09.417Z,45.00
2024-03-09T00:16:05.258Z,38.50
2024-03-09T00:18:37.199Z,48.00
2024-03-09T00:21:10.950Z,408.00
2024-03-09T00:23:37.849Z,38.25
2024-03-09T00:26:05.411Z,46.33
2024-03-09T00:28:32.209Z,417.75
2024-03-09T00:30:58.952Z,46.67
2024-03-09T00:33:27.104Z,39.33
2024-03-09T00:35:54.061Z,69.25
2024-03-09T00:38:20.840Z,37.25
2024-03-09T00:40:47.584Z,406.25
2024-03-09T00:43:14.429Z,39.33
2024-03-09T00:45:41.214Z,382.67
2024-03-09T00:48:08.239Z,411.67
2024-03-09T00:50:36.361Z,36.00
2024-03-09T00:53:03.154Z,42.33
2024-03-09T00:55:30.243Z,314.00
2024-03-09T00:57:57.136Z,322.20
2024-03-09T01:00:24.059Z,37.33
2024-03-09T01:02:51.195Z,609.20
2024-03-09T01:05:19.142Z,49.67
2024-03-09T01:07:47.731Z,28.75
2024-03-09T01:10:14.627Z,35.33
2024-03-09T01:12:42.745Z,498.00
2024-03-09T01:15:10.879Z,27.67
2024-03-09T01:17:38.318Z,1903.00
2024-03-09T01:20:06.270Z,29.25
2024-03-09T01:22:33.473Z,139.50
2024-03-09T01:25:01.753Z,230.25
2024-03-09T01:27:28.956Z,49.50
2024-03-09T01:29:55.709Z,33.33
2024-03-09T01:32:22.618Z,363.40
2024-03-09T01:34:49.766Z,36.00
2024-03-09T01:37:16.642Z,501.75
2024-03-09T01:39:43.482Z,34.00
2024-03-09T01:42:11.927Z,1042.20
2024-03-09T01:44:38.696Z,1232.50
2024-03-09T01:47:08.899Z,589.25
2024-03-09T01:49:36.989Z,46.33
2024-03-09T01:52:05.412Z,47.50
2024-03-09T01:54:35.416Z,32.25
2024-03-09T01:57:02.309Z,28.00
2024-03-09T01:59:31.839Z,34.25
2024-03-09T02:01:59.325Z,37.67
2024-03-09T02:04:26.639Z,30.75
2024-03-09T02:06:53.658Z,34.25
2024-03-09T02:09:21.112Z,33.00
2024-03-09T02:11:48.459Z,33.33
2024-03-09T02:14:15.494Z,33.00
2024-03-09T02:16:43.826Z,46.33
2024-03-09T02:19:11.085Z,401.33
2024-03-09T02:21:37.766Z,34.67
2024-03-09T02:24:08.847Z,29.67
2024-03-09T02:26:37.348Z,36.75
2024-03-09T02:29:05.412Z,35.33
2024-03-09T02:31:32.563Z,47.33
2024-03-09T02:34:00.334Z,36.50
2024-03-09T02:36:28.072Z,45.33
2024-03-09T02:38:55.604Z,34.00
2024-03-09T02:41:22.964Z,35.00
2024-03-09T02:43:51.924Z,37.00
2024-03-09T02:46:19.101Z,40.00
2024-03-09T02:48:47.473Z,34.75
2024-03-09T02:51:15.286Z,39.00
2024-03-09T02:53:43.604Z,35.25
2024-03-09T02:56:11.250Z,41.33
2024-03-09T02:58:40.516Z,32.00
2024-03-09T03:01:10.087Z,34.50
2024-03-09T03:03:37.155Z,34.00
2024-03-09T03:06:04.142Z,670.50
2024-03-09T03:08:30.928Z,73.50
2024-03-09T03:10:57.892Z,37.00
2024-03-09T03:13:24.772Z,37.67
2024-03-09T03:15:51.640Z,43.00
2024-03-09T03:18:19.841Z,502.25
2024-03-09T03:20:46.728Z,73.00
2024-03-09T03:23:13.742Z,527.33
2024-03-09T03:25:40.883Z,36.00
2024-03-09T03:28:07.605Z,784.25
2024-03-09T03:30:34.811Z,873.00
2024-03-09T03:33:01.604Z,41.00
2024-03-09T03:35:30.028Z,42.50
2024-03-09T03:37:56.745Z,495.75
2024-03-09T03:40:24.577Z,758.75
2024-03-09T03:42:56.781Z,58.67
2024-03-09T03:45:23.646Z,40.67
2024-03-09T03:47:50.496Z,36.50
2024-03-09T03:50:17.200Z,329.00
2024-03-09T03:52:45.320Z,49.50
2024-03-09T03:55:12.411Z,42.33
2024-03-09T03:57:40.831Z,122.20
2024-03-09T04:00:08.930Z,36.00
2024-03-09T04:02:35.998Z,50.67
2024-03-09T04:05:04.976Z,38.33
2024-03-09T04:07:31.916Z,889.00
2024-03-09T04:10:00.149Z,2.00
2024-03-09T04:12:27.206Z,35.00
2024-03-09T04:14:53.998Z,716.80
2024-03-09T04:17:20.813Z,330.00
2024-03-09T04:19:47.863Z,41.00
2024-03-09T04:22:15.246Z,319.75
2024-03-09T04:24:43.851Z,933.20
2024-03-09T04:27:12.405Z,404.67
2024-03-09T04:29:39.265Z,593.50
2024-03-09T04:32:06.721Z,277.75
2024-03-09T04:34:33.413Z,413.50
2024-03-09T04:37:00.151Z,153.00
2024-03-09T04:39:27.061Z,708.20
2024-03-09T04:41:53.745Z,382.40
2024-03-09T04:44:27.654Z,783.80
2024-03-09T04:46:57.331Z,38.67
2024-03-09T04:49:24.248Z,41.25
2024-03-09T04:51:51.383Z,36.00
2024-03-09T04:54:18.236Z,388.67
2024-03-09T04:56:45.303Z,891.00
2024-03-09T04:59:12.291Z,37.33
2024-03-09T05:01:40.904Z,39.00
2024-03-09T05:04:07.950Z,159.00
2024-03-09T05:06:36.900Z,66.20
2024-03-09T05:09:03.828Z,46.25
2024-03-09T05:11:30.638Z,32.33
2024-03-09T05:13:57.375Z,30.75
2024-03-09T05:16:24.199Z,404.50
2024-03-09T05:18:52.821Z,38.50
2024-03-09T05:21:19.697Z,364.80
2024-03-09T05:23:46.528Z,47.67
2024-03-09T05:26:14.265Z,408.33
2024-03-09T05:28:41.182Z,37.75
2024-03-09T05:31:24.185Z,46.00
2024-03-09T05:33:52.475Z,419.00
2024-03-09T05:36:19.306Z,611.67
2024-03-09T05:38:45.967Z,513.00
2024-03-09T05:41:12.792Z,1046.25
2024-03-09T05:43:39.684Z,1114.25
2024-03-09T05:46:06.449Z,764.67
2024-03-09T05:48:33.978Z,1336.80
2024-03-09T05:51:02.477Z,40.33
2024-03-09T05:53:29.165Z,581.00
2024-03-09T05:55:55.882Z,1198.80
2024-03-09T05:58:22.823Z,121.25
2024-03-09T06:00:49.953Z,988.00
2024-03-09T06:03:16.706Z,43.75
2024-03-09T06:05:45.298Z,779.50
2024-03-09T06:08:13.813Z,1180.20
2024-03-09T06:10:46.867Z,1044.00
2024-03-09T06:13:18.176Z,202.00
2024-03-09T06:15:45.841Z,1756.75
2024-03-09T06:18:13.242Z,1342.20
2024-03-09T06:20:40.607Z,1502.50
2024-03-09T06:23:07.341Z,1213.50
2024-03-09T06:25:35.498Z,409.33
2024-03-09T06:28:05.707Z,668.25
2024-03-09T06:30:33.641Z,625.20
2024-03-09T06:33:03.149Z,2559.20
2024-03-09T06:35:31.223Z,2857.25
2024-03-09T06:37:59.400Z,1112.50
2024-03-09T06:40:26.654Z,2330.00
2024-03-09T06:42:58.253Z,766.00
2024-03-09T06:45:25.403Z,2386.50
2024-03-09T06:47:52.073Z,3071.00
2024-03-09T06:50:18.977Z,3112.80
2024-03-09T06:52:45.800Z,2712.00
2024-03-09T06:55:12.879Z,3413.20
2024-03-09T06:57:41.043Z,3192.75
2024-03-09T07:00:10.791Z,2904.25
2024-03-09T07:02:37.427Z,2997.60
2024-03-09T07:05:04.529Z,2333.20
2024-03-09T07:07:31.299Z,896.40
2024-03-09T07:09:58.360Z,35.33
2024-03-09T07:12:28.990Z,1275.00
2024-03-09T07:14:56.207Z,37.75
2024-03-09T07:17:24.537Z,548.60
2024-03-09T07:19:51.302Z,2009.00
2024-03-09T07:22:18.590Z,1669.00
2024-03-09T07:24:45.361Z,341.20
2024-03-09T07:27:12.447Z,2898.33
2024-03-09T07:29:39.184Z,1024.40
2024-03-09T07:32:08.042Z,2326.40
2024-03-09T07:34:37.267Z,2702.00
2024-03-09T07:37:04.820Z,496.50
2024-03-09T07:39:31.748Z,1033.25
2024-03-09T07:41:58.474Z,2692.75
2024-03-09T07:44:25.257Z,3237.75
2024-03-09T07:46:52.307Z,3559.00
2024-03-09T07:49:19.412Z,3217.75
2024-03-09T07:51:47.857Z,1995.00
2024-03-09T07:54:14.684Z,1885.60
2024-03-09T07:56:41.327Z,749.20
2024-03-09T07:59:08.509Z,39.25
2024-03-09T08:01:35.498Z,1806.25
2024-03-09T08:04:02.362Z,3551.00
2024-03-09T08:06:29.197Z,3529.50
2024-03-09T08:08:57.422Z,1293.40
2024-03-09T08:11:25.147Z,2509.75
2024-03-09T08:13:52.306Z,3186.75
2024-03-09T08:16:19.409Z,3599.00
2024-03-09T08:18:46.151Z,3546.25
2024-03-09T08:21:13.191Z,3593.20
2024-03-09T08:23:40.519Z,3416.25
2024-03-09T08:26:09.462Z,2859.75
2024-03-09T08:28:36.393Z,3600.75
2024-03-09T08:31:03.509Z,3553.25
2024-03-09T08:33:30.649Z,3562.33
2024-03-09T08:35:58.009Z,3225.67
2024-03-09T08:38:25.260Z,3553.25
2024-03-09T08:40:52.439Z,3566.75
2024-03-09T08:43:23.987Z,3152.50
2024-03-09T08:45:51.010Z,3600.50
2024-03-09T08:48:20.624Z,3343.00
2024-03-09T08:50:50.417Z,1458.80
2024-03-09T08:53:17.381Z,2949.50
2024-03-09T08:55:46.596Z,576.25
2024-03-09T08:58:13.319Z,2142.00
2024-03-09T09:00:42.459Z,2934.80
2024-03-09T09:03:10.172Z,3293.00
2024-03-09T09:05:36.924Z,3641.00
2024-03-09T09:08:06.607Z,2254.80
2024-03-09T09:10:34.629Z,3591.00
2024-03-09T09:13:02.461Z,764.00
2024-03-09T09:15:29.242Z,2483.40
2024-03-09T09:17:57.390Z,37.50
2024-03-09T09:20:25.734Z,3530.40
2024-03-09T09:22:52.730Z,1432.25
2024-03-09T09:25:19.759Z,3587.50
2024-03-09T09:27:46.566Z,1533.00
2024-03-09T09:30:13.766Z,37.50
2024-03-09T09:32:41.615Z,1247.80
2024-03-09T09:35:11.022Z,60.75
2024-03-09T09:37:39.280Z,619.80
2024-03-09T09:40:11.799Z,2859.00
2024-03-09T09:42:40.458Z,1658.60
2024-03-09T09:45:11.002Z,621.60
2024-03-09T09:47:38.890Z,3197.00
2024-03-09T09:50:08.047Z,3001.40
2024-03-09T09:52:38.177Z,2828.00
2024-03-09T09:55:06.331Z,3564.67
2024-03-09T09:57:33.242Z,2893.60
2024-03-09T10:00:01.443Z,1260.00
2024-03-09T10:02:28.723Z,1435.75
2024-03-09T10:04:57.312Z,2838.00
2024-03-09T10:07:24.277Z,77.00
2024-03-09T10:09:57.450Z,1271.60
2024-03-09T10:12:25.083Z,3314.50
2024-03-09T10:14:52.102Z,3277.75
2024-03-09T10:17:19.303Z,3183.00
2024-03-09T10:19:46.236Z,2054.25
2024-03-09T10:22:14.194Z,3025.00
2024-03-09T10:24:54.741Z,2060.20
2024-03-09T10:27:21.822Z,2744.00
2024-03-09T10:29:48.794Z,1828.20
2024-03-09T10:32:16.051Z,745.60
2024-03-09T10:34:43.032Z,1261.75
2024-03-09T10:37:11.389Z,2975.75
2024-03-09T10:39:39.245Z,3479.40
2024-03-09T10:42:09.955Z,1196.00
2024-03-09T10:44:36.873Z,3336.80
2024-03-09T10:47:09.954Z,2784.00
2024-03-09T10:49:43.069Z,31.50
2024-03-09T10:52:12.892Z,11.25
2024-03-09T10:54:45.046Z,3013.50
2024-03-09T10:57:20.247Z,3099.50
2024-03-09T10:59:47.859Z,28.33
2024-03-09T11:02:15.241Z,32.33
2024-03-09T11:04:44.059Z,3104.80
2024-03-09T11:07:10.844Z,2537.00
2024-03-09T11:09:38.018Z,2982.40
2024-03-09T11:12:05.893Z,3061.20
2024-03-09T11:14:34.183Z,2755.00
2024-03-09T11:17:01.091Z,3243.00
2024-03-09T11:19:28.493Z,3266.50
2024-03-09T11:21:58.585Z,2747.40
2024-03-09T11:24:26.649Z,2764.25
2024-03-09T11:26:53.475Z,3000.50
2024-03-09T11:29:22.466Z,3378.40
2024-03-09T11:31:57.342Z,2659.25
2024-03-09T11:34:24.122Z,2727.75
2024-03-09T11:36:51.989Z,32.75
2024-03-09T11:39:20.520Z,41.40
2024-03-09T11:41:49.193Z,626.75
2024-03-09T11:44:20.773Z,25.67
2024-03-09T11:46:48.150Z,28.50
2024-03-09T11:49:16.957Z,27.00
2024-03-09T11:51:44.501Z,24.25
2024-03-09T11:54:12.536Z,28.75
2024-03-09T11:56:41.321Z,28.50
2024-03-09T11:59:09.212Z,28.00
2024-03-09T12:01:36.068Z,24.00
2024-03-09T12:04:06.358Z,14.75
2024-03-09T12:06:35.825Z,13.00
2024-03-09T12:09:02.713Z,23.75
2024-03-09T12:11:33.318Z,22.75
2024-03-09T12:14:00.333Z,25.50
2024-03-09T12:16:28.892Z,12.75
2024-03-09T12:18:57.634Z,23.25
2024-03-09T12:21:26.939Z,30.75
2024-03-09T12:23:57.254Z,22.25
2024-03-09T12:26:25.027Z,23.25
2024-03-09T12:28:51.768Z,25.25
2024-03-09T12:31:18.790Z,23.00
2024-03-09T12:33:46.276Z,18.67
2024-03-09T12:36:14.452Z,22.33
2024-03-09T12:38:41.418Z,17.00
2024-03-09T12:41:24.704Z,20.75
2024-03-09T12:43:51.523Z,22.50
2024-03-09T12:46:19.602Z,13.00
2024-03-09T12:48:46.518Z,23.33
2024-03-09T12:51:15.193Z,15.00
2024-03-09T12:53:41.908Z,21.33
2024-03-09T12:56:10.609Z,22.25
2024-03-09T12:58:37.622Z,23.00
2024-03-09T13:01:04.551Z,14.67
2024-03-09T13:03:31.367Z,18.67
2024-03-09T13:05:58.105Z,23.00
2024-03-09T13:08:25.082Z,20.33
2024-03-09T13:10:52.104Z,21.00
2024-03-09T13:13:20.886Z,23.33
2024-03-09T13:15:47.914Z,17.75
2024-03-09T13:18:14.674Z,22.33
2024-03-09T13:20:41.695Z,29.75
2024-03-09T13:23:09.536Z,22.33
2024-03-09T13:25:36.475Z,22.75
2024-03-09T13:28:04.218Z,19.00
2024-03-09T13:30:33.009Z,28.50
2024-03-09T13:32:59.837Z,10.00
2024-03-09T13:35:26.665Z,18.33
2024-03-09T13:37:54.863Z,19.67
2024-03-09T13:40:22.109Z,22.75
2024-03-09T13:42:49.936Z,15.50
2024-03-09T13:45:16.980Z,15.33
2024-03-09T13:47:48.257Z,22.25
2024-03-09T13:50:15.188Z,22.25
2024-03-09T13:52:41.958Z,13.00
2024-03-09T13:55:11.224Z,20.00
2024-03-09T13:57:38.360Z,21.33
2024-03-09T14:00:07.725Z,21.50
2024-03-09T14:02:34.657Z,25.25
2024-03-09T14:05:02.920Z,21.75
2024-03-09T14:07:30.357Z,19.50
2024-03-09T14:09:57.463Z,23.75
2024-03-09T14:12:24.664Z,12.00
2024-03-09T14:14:53.713Z,13.33
2024-03-09T14:17:22.067Z,11.75
2024-03-09T14:19:49.389Z,21.25
2024-03-09T14:22:17.811Z,23.00
2024-03-09T14:24:45.241Z,22.25
2024-03-09T14:27:12.347Z,20.00
2024-03-09T14:29:39.106Z,56.67
2024-03-09T14:32:05.887Z,20.25
2024-03-09T14:34:32.639Z,20.67
2024-03-09T14:36:59.524Z,25.75
2024-03-09T14:39:27.724Z,17.00
2024-03-09T14:41:54.554Z,19.50
2024-03-09T14:44:21.521Z,18.50
2024-03-09T14:46:48.356Z,17.00
2024-03-09T14:49:15.258Z,11.25
2024-03-09T14:51:42.039Z,15.75
2024-03-09T14:54:08.889Z,20.00
2024-03-09T14:56:36.985Z,32.00
2024-03-09T14:59:03.750Z,26.75
2024-03-09T15:01:30.686Z,42.50
2024-03-09T15:03:57.497Z,30.00
2024-03-09T15:06:24.484Z,25.25
2024-03-09T15:08:51.330Z,18.75
2024-03-09T15:11:18.217Z,14.00
2024-03-09T15:13:49.241Z,19.00
2024-03-09T15:16:16.905Z,16.00
2024-03-09T15:18:43.695Z,11.33
2024-03-09T15:21:10.829Z,20.25
2024-03-09T15:23:37.615Z,24.50
2024-03-09T15:26:04.618Z,20.00
2024-03-09T15:28:31.297Z,19.00
2024-03-09T15:30:59.418Z,20.33
2024-03-09T15:33:26.336Z,14.50
2024-03-09T15:35:53.479Z,15.75
2024-03-09T15:38:21.185Z,19.50
2024-03-09T15:40:47.919Z,24.75
2024-03-09T15:43:15.070Z,15.67
2024-03-09T15:45:42.044Z,22.00
2024-03-09T15:48:10.294Z,21.00
2024-03-09T15:50:37.123Z,14.67
2024-03-09T15:53:04.429Z,27.25
2024-03-09T15:55:32.353Z,21.75
2024-03-09T15:57:59.402Z,27.00
2024-03-09T16:00:26.178Z,24.00
2024-03-09T16:02:53.397Z,25.25
2024-03-09T16:05:21.904Z,23.50
2024-03-09T16:07:48.765Z,21.25
2024-03-09T16:10:16.379Z,21.50
2024-03-09T16:12:43.129Z,26.25
2024-03-09T16:15:10.003Z,25.25
2024-03-09T16:17:37.753Z,32.00
2024-03-09T16:20:05.437Z,36.00
2024-03-09T16:22:33.551Z,38.00
2024-03-09T16:25:00.317Z,35.25
2024-03-09T16:27:27.208Z,36.00
2024-03-09T16:29:53.982Z,34.50
2024-03-09T16:32:20.831Z,25.50
2024-03-09T16:34:48.691Z,21.00
2024-03-09T16:37:15.444Z,23.25
2024-03-09T16:39:43.602Z,20.50
2024-03-09T16:42:10.292Z,23.00
2024-03-09T16:44:36.997Z,27.00
2024-03-09T16:47:03.983Z,26.50
2024-03-09T16:49:33.669Z,48.50
2024-03-09T16:52:00.815Z,40.75
2024-03-09T16:54:27.674Z,28.25
2024-03-09T16:56:55.713Z,34.50
2024-03-09T16:59:22.587Z,33.50
2024-03-09T17:01:49.503Z,28.00
2024-03-09T17:04:16.316Z,30.75
2024-03-09T17:06:43.149Z,33.75
2024-03-09T17:09:10.015Z,45.25
2024-03-09T17:11:37.237Z,28.50
2024-03-09T17:14:05.744Z,44.00
2024-03-09T17:16:32.628Z,34.67
2024-03-09T17:18:59.377Z,36.00
2024-03-09T17:21:26.096Z,38.75
2024-03-09T17:23:53.071Z,36.00
2024-03-09T17:26:20.081Z,31.50
2024-03-09T17:28:46.959Z,32.25
2024-03-09T17:31:15.569Z,44.67
2024-03-09T17:33:42.350Z,31.50
2024-03-09T17:36:09.227Z,60.00
2024-03-09T17:38:36.001Z,28.75
2024-03-09T17:41:03.006Z,72.67
2024-03-09T17:43:29.760Z,36.25
2024-03-09T17:45:56.607Z,1.00
2024-03-09T17:48:26.165Z,37.67
2024-03-09T17:50:52.837Z,37.67
2024-03-09T17:53:19.671Z,29.50
2024-03-09T17:55:46.709Z,48.33
2024-03-09T17:58:13.904Z,3089.00
2024-03-09T18:00:40.701Z,3416.75
2024-03-09T18:03:07.638Z,3442.40
2024-03-09T18:05:36.016Z,3455.00
2024-03-09T18:08:04.561Z,2702.40
2024-03-09T18:10:31.429Z,3479.80
2024-03-09T18:12:58.469Z,3449.75
2024-03-09T18:15:26.189Z,3177.75
2024-03-09T18:17:53.154Z,3431.67
2024-03-09T18:20:20.237Z,2785.33
2024-03-09T18:22:48.782Z,3141.20
2024-03-09T18:25:15.518Z,2841.00
2024-03-09T18:27:42.235Z,2689.00
2024-03-09T18:30:10.059Z,3469.20
2024-03-09T18:32:36.745Z,3476.25
2024-03-09T18:35:03.994Z,3396.75
2024-03-09T18:37:30.797Z,3038.20
2024-03-09T18:39:58.927Z,3455.00
2024-03-09T18:42:25.785Z,2609.50
2024-03-09T18:44:52.564Z,43.00
2024-03-09T18:47:19.359Z,3402.60
2024-03-09T18:49:46.336Z,2981.00
2024-03-09T18:52:13.106Z,2974.50
2024-03-09T18:54:39.835Z,1147.20
2024-03-09T18:57:08.062Z,63.00
2024-03-09T18:59:36.998Z,743.25
2024-03-09T19:02:03.909Z,1319.33
2024-03-09T19:04:32.348Z,3484.00
2024-03-09T19:06:59.263Z,2809.60
2024-03-09T19:09:26.046Z,31.50
2024-03-09T19:11:52.814Z,1146.20
2024-03-09T19:14:21.225Z,378.33
2024-03-09T19:16:48.271Z,32.00
2024-03-09T19:19:15.073Z,322.00
2024-03-09T19:21:41.759Z,35.00
2024-03-09T19:24:08.563Z,35.25
2024-03-09T19:26:35.344Z,3520.40
2024-03-09T19:29:02.217Z,649.50
2024-03-09T19:31:30.450Z,2806.75
2024-03-09T19:33:57.399Z,3097.50
2024-03-09T19:36:24.210Z,2555.00
2024-03-09T19:38:50.910Z,3560.75
2024-03-09T19:41:17.768Z,40.75
2024-03-09T19:43:44.800Z,42.50
2024-03-09T19:46:11.794Z,764.33
2024-03-09T19:48:39.890Z,48.33
2024-03-09T19:51:06.677Z,45.00
2024-03-09T19:53:35.155Z,55.33
2024-03-09T19:56:01.899Z,39.00
2024-03-09T19:58:28.618Z,1442.75
2024-03-09T20:00:55.331Z,3542.40
2024-03-09T20:03:22.154Z,3272.25
2024-03-09T20:05:50.397Z,3423.00
2024-03-09T20:08:17.175Z,3509.00
2024-03-09T20:10:43.930Z,3175.50
2024-03-09T20:13:10.754Z,3448.50
2024-03-09T20:15:37.584Z,3010.00
2024-03-09T20:18:05.149Z,3530.75
2024-03-09T20:20:32.267Z,2069.20
2024-03-09T20:23:00.375Z,3557.33
2024-03-09T20:25:27.232Z,39.00
2024-03-09T20:27:54.088Z,50.67
2024-03-09T20:30:21.432Z,44.00
2024-03-09T20:32:50.500Z,39.00
2024-03-09T20:35:17.636Z,49.67
2024-03-09T20:37:45.798Z,58.25
2024-03-09T20:40:14.885Z,45.67
2024-03-09T20:42:41.981Z,37.33
2024-03-09T20:45:09.571Z,41.00
2024-03-09T20:47:36.881Z,35.00
2024-03-09T20:50:03.979Z,45.67
2024-03-09T20:52:31.641Z,46.25
2024-03-09T20:54:58.305Z,39.00
2024-03-09T20:57:26.485Z,51.00
2024-03-09T20:59:53.214Z,553.80
2024-03-09T21:02:20.106Z,3529.25
2024-03-09T21:04:48.295Z,3563.25
2024-03-09T21:07:16.064Z,63.00
2024-03-09T21:09:42.779Z,63.33
2024-03-09T21:12:09.590Z,45.33
2024-03-09T21:14:38.392Z,3557.40
2024-03-09T21:17:05.379Z,3122.00
2024-03-09T21:19:32.234Z,3415.75
2024-03-09T21:21:58.934Z,3545.00
2024-03-09T21:24:25.690Z,3160.40
2024-03-09T21:26:52.396Z,85.50
2024-03-09T21:29:19.217Z,3507.20
2024-03-09T21:31:47.973Z,3211.20
2024-03-09T21:34:15.340Z,3532.00
2024-03-09T21:36:42.619Z,75.60
2024-03-09T21:39:09.311Z,895.00
2024-03-09T21:41:36.011Z,3559.50
2024-03-09T21:44:02.717Z,3505.50
2024-03-09T21:46:29.477Z,2864.60
2024-03-09T21:48:57.502Z,3536.50
2024-03-09T21:51:24.302Z,3539.67
2024-03-09T21:53:51.042Z,3500.00
2024-03-09T21:56:17.883Z,3248.00
2024-03-09T21:58:44.674Z,3527.50
2024-03-09T22:01:11.847Z,427.00
2024-03-09T22:03:39.137Z,3549.50
2024-03-09T22:06:07.782Z,2633.00
2024-03-09T22:08:34.651Z,3420.50
2024-03-09T22:11:01.829Z,3178.75
2024-03-09T22:13:28.712Z,1468.67
2024-03-09T22:15:55.978Z,397.00
2024-03-09T22:18:22.986Z,3068.20
2024-03-09T22:20:49.788Z,3527.60
2024-03-09T22:23:18.027Z,3158.60
2024-03-09T22:25:44.761Z,3347.25
2024-03-09T22:28:11.604Z,3551.75
2024-03-09T22:30:38.332Z,3414.50
2024-03-09T22:33:05.232Z,468.40
2024-03-09T22:35:32.022Z,1484.20
2024-03-09T22:37:58.941Z,3259.00
2024-03-09T22:40:27.040Z,3514.25
2024-03-09T22:42:53.893Z,3536.75
2024-03-09T22:45:20.831Z,3235.25
2024-03-09T22:47:47.988Z,54.60
2024-03-09T22:50:16.928Z,66.00
2024-03-09T22:52:44.237Z,1243.60
2024-03-09T22:55:11.573Z,1640.60
2024-03-09T22:57:39.974Z,55.75
2024-03-09T23:00:07.907Z,542.40
2024-03-09T23:02:34.981Z,3533.00
2024-03-09T23:05:02.279Z,1090.00
2024-03-09T23:07:29.077Z,652.25
2024-03-09T23:09:55.851Z,3158.50
2024-03-09T23:12:22.823Z,3544.25
2024-03-09T23:14:50.932Z,2313.50
2024-03-09T23:17:17.914Z,3524.00
2024-03-09T23:19:44.736Z,3161.25
2024-03-09T23:22:11.539Z,3183.25
2024-03-09T23:24:38.243Z,3532.75
2024-03-09T23:27:05.397Z,3511.00
2024-03-09T23:29:32.508Z,3348.50
2024-03-09T23:32:01.355Z,3560.40
2024-03-09T23:34:28.245Z,949.00
2024-03-09T23:36:55.020Z,1009.25
2024-03-09T23:39:21.697Z,750.40
2024-03-09T23:41:48.407Z,664.20
2024-03-09T23:44:15.154Z,1984.00
2024-03-09T23:46:42.485Z,1090.50
2024-03-09T23:49:10.719Z,383.00
2024-03-09T23:51:37.656Z,2090.50
2024-03-09T23:54:05.596Z,3520.40
2024-03-09T23:56:32.531Z,258.40
2024-03-09T23:58:59.582Z,60.75
